sensor_id;sensor_type;location;lat;lon;timestamp;P1;P2;P0
69746;PMS7003;57018;50.278;19.134;2024-01-15T00:02:08;25.00;19.50;14.00
69746;PMS7003;57018;50.278;19.134;2024-01-15T00:04:38;25.00;23.00;15.00
69746;PMS7003;57018;50.278;19.134;2024-01-15T00:07:08;31.00;22.00;15.50
69746;PMS7003;57018;50.278;19.134;2024-01-15T00:09:39;25.00;23.00;14.00
69746;PMS7003;57018;50.278;19.134;2024-01-15T00:12:09;21.00;15.50;12.00
69746;PMS7003;57018;50.278;19.134;2024-01-15T00:14:39;21.00;21.00;14.00
69746;PMS7003;57018;50.278;19.134;2024-01-15T00:17:09;18.00;16.00;12.00
69746;PMS7003;57018;50.278;19.134;2024-01-15T00:19:41;24.00;19.00;13.00
69746;PMS7003;57018;50.278;19.134;2024-01-15T00:22:11;18.00;17.50;10.50
69746;PMS7003;57018;50.278;19.134;2024-01-15T00:24:41;17.00;15.50;10.00
69746;PMS7003;57018;50.278;19.134;2024-01-15T00:27:11;22.00;19.00;12.00
69746;PMS7003;57018;50.278;19.134;2024-01-15T00:29:41;21.00;20.00;12.00
69746;PMS7003;57018;50.278;19.134;2024-01-15T00:32:11;20.00;20.00;12.00
69746;PMS7003;57018;50.278;19.134;2024-01-15T00:34:41;16.00;16.00;9.00
69746;PMS7003;57018;50.278;19.134;2024-01-15T00:37:11;26.00;20.00;13.00
69746;PMS7003;57018;50.278;19.134;2024-01-15T00:39:41;20.00;19.00;12.00
69746;PMS7003;57018;50.278;19.134;2024-01-15T00:42:11;21.00;19.50;13.00
69746;PMS7003;57018;50.278;19.134;2024-01-15T00:44:41;15.33;13.00;9.33
69746;PMS7003;57018;50.278;19.134;2024-01-15T00:47:14;22.67;17.00;10.67
69746;PMS7003;57018;50.278;19.134;2024-01-15T00:49:48;12.00;10.50;9.00
69746;PMS7003;57018;50.278;19.134;2024-01-15T00:52:20;23.00;21.00;11.00
69746;PMS7003;57018;50.278;19.134;2024-01-15T00:54:50;20.00;17.00;10.00
69746;PMS7003;57018;50.278;19.134;2024-01-15T00:57:20;21.00;15.00;9.00
69746;PMS7003;57018;50.278;19.134;2024-01-15T00:59:50;18.00;16.00;11.00
69746;PMS7003;57018;50.278;19.134;2024-01-15T01:02:20;20.00;13.50;10.00
69746;PMS7003;57018;50.278;19.134;2024-01-15T01:04:49;18.00;13.00;10.00
69746;PMS7003;57018;50.278;19.134;2024-01-15T01:07:19;20.00;19.00;10.00
69746;PMS7003;57018;50.278;19.134;2024-01-15T01:09:52;17.00;16.00;10.00
69746;PMS7003;57018;50.278;19.134;2024-01-15T01:12:23;19.00;19.00;12.00
69746;PMS7003;57018;50.278;19.134;2024-01-15T01:14:53;14.50;14.50;11.00
69746;PMS7003;57018;50.278;19.134;2024-01-15T01:17:23;17.00;12.00;10.00
69746;PMS7003;57018;50.278;19.134;2024-01-15T01:22:21;17.00;15.00;10.00
69746;PMS7003;57018;50.278;19.134;2024-01-15T01:24:51;22.00;19.00;10.00
69746;PMS7003;57018;50.278;19.134;2024-01-15T01:27:21;18.00;17.50;13.00
69746;PMS7003;57018;50.278;19.134;2024-01-15T01:29:51;16.00;16.00;13.00
69746;PMS7003;57018;50.278;19.134;2024-01-15T01:32:23;23.00;18.33;10.00
69746;PMS7003;57018;50.278;19.134;2024-01-15T01:34:53;19.50;16.50;10.00
69746;PMS7003;57018;50.278;19.134;2024-01-15T01:37:23;23.00;19.00;12.00
69746;PMS7003;57018;50.278;19.134;2024-01-15T01:39:53;16.50;10.00;4.50
69746;PMS7003;57018;50.278;19.134;2024-01-15T01:42:22;16.00;16.00;10.00
69746;PMS7003;57018;50.278;19.134;2024-01-15T01:47:21;3.50;3.50;3.00
69746;PMS7003;57018;50.278;19.134;2024-01-15T01:49:53;17.50;13.00;8.50
69746;PMS7003;57018;50.278;19.134;2024-01-15T01:52:24;13.00;10.00;8.00
69746;PMS7003;57018;50.278;19.134;2024-01-15T01:54:54;17.00;12.00;6.00
69746;PMS7003;57018;50.278;19.134;2024-01-15T01:57:25;13.00;10.00;6.00
69746;PMS7003;57018;50.278;19.134;2024-01-15T01:59:55;20.50;16.00;11.00
69746;PMS7003;57018;50.278;19.134;2024-01-15T02:04:54;8.00;5.50;1.50
69746;PMS7003;57018;50.278;19.134;2024-01-15T02:07:24;15.50;11.00;6.00
69746;PMS7003;57018;50.278;19.134;2024-01-15T02:09:56;18.00;15.00;9.00
69746;PMS7003;57018;50.278;19.134;2024-01-15T02:12:26;12.00;11.33;6.67
69746;PMS7003;57018;50.278;19.134;2024-01-15T02:14:56;21.00;17.00;9.00
69746;PMS7003;57018;50.278;19.134;2024-01-15T02:17:26;15.50;11.50;6.00
69746;PMS7003;57018;50.278;19.134;2024-01-15T02:19:55;12.00;12.00;9.00
69746;PMS7003;57018;50.278;19.134;2024-01-15T02:22:25;15.00;12.50;8.00
69746;PMS7003;57018;50.278;19.134;2024-01-15T02:24:55;12.00;9.00;6.00
69746;PMS7003;57018;50.278;19.134;2024-01-15T02:27:25;15.33;13.00;8.00
69746;PMS7003;57018;50.278;19.134;2024-01-15T02:29:56;13.00;10.00;6.00
69746;PMS7003;57018;50.278;19.134;2024-01-15T02:32:25;12.00;11.00;6.00
69746;PMS7003;57018;50.278;19.134;2024-01-15T02:34:58;18.33;12.67;9.00
69746;PMS7003;57018;50.278;19.134;2024-01-15T02:37:28;8.33;8.33;6.00
69746;PMS7003;57018;50.278;19.134;2024-01-15T02:39:57;12.00;9.00;6.00
69746;PMS7003;57018;50.278;19.134;2024-01-15T02:42:27;9.50;8.50;6.00
69746;PMS7003;57018;50.278;19.134;2024-01-15T02:45:01;10.00;10.00;6.00
69746;PMS7003;57018;50.278;19.134;2024-01-15T02:47:31;13.00;13.00;8.00
69746;PMS7003;57018;50.278;19.134;2024-01-15T02:50:01;12.00;8.00;6.00
69746;PMS7003;57018;50.278;19.134;2024-01-15T02:52:32;9.00;9.00;6.00
69746;PMS7003;57018;50.278;19.134;2024-01-15T02:55:02;9.00;8.00;7.00
69746;PMS7003;57018;50.278;19.134;2024-01-15T02:57:33;13.00;11.33;7.00
69746;PMS7003;57018;50.278;19.134;2024-01-15T03:00:04;14.00;9.00;7.00
69746;PMS7003;57018;50.278;19.134;2024-01-15T03:02:36;8.50;7.00;4.50
69746;PMS7003;57018;50.278;19.134;2024-01-15T03:05:07;11.50;9.00;6.00
69746;PMS7003;57018;50.278;19.134;2024-01-15T03:07:37;9.00;9.00;6.00
69746;PMS7003;57018;50.278;19.134;2024-01-15T03:10:08;10.00;8.50;5.50
69746;PMS7003;57018;50.278;19.134;2024-01-15T03:12:38;8.00;7.50;4.50
69746;PMS7003;57018;50.278;19.134;2024-01-15T03:15:09;6.00;6.00;5.00
69746;PMS7003;57018;50.278;19.134;2024-01-15T03:17:39;5.00;5.00;3.00
69746;PMS7003;57018;50.278;19.134;2024-01-15T03:20:11;11.00;11.00;5.00
69746;PMS7003;57018;50.278;19.134;2024-01-15T03:22:41;8.50;8.50;5.00
69746;PMS7003;57018;50.278;19.134;2024-01-15T03:25:11;9.00;9.00;4.00
69746;PMS7003;57018;50.278;19.134;2024-01-15T03:27:41;8.00;8.00;5.00
69746;PMS7003;57018;50.278;19.134;2024-01-15T03:30:12;9.00;6.00;6.00
69746;PMS7003;57018;50.278;19.134;2024-01-15T03:32:42;5.00;5.00;4.50
69746;PMS7003;57018;50.278;19.134;2024-01-15T03:35:14;11.50;6.00;4.00
69746;PMS7003;57018;50.278;19.134;2024-01-15T03:37:44;7.00;7.00;4.00
69746;PMS7003;57018;50.278;19.134;2024-01-15T03:40:14;8.00;7.00;5.00
69746;PMS7003;57018;50.278;19.134;2024-01-15T03:42:44;11.00;9.50;5.50
69746;PMS7003;57018;50.278;19.134;2024-01-15T03:45:14;10.00;10.00;6.00
69746;PMS7003;57018;50.278;19.134;2024-01-15T03:47:46;6.00;6.00;5.00
69746;PMS7003;57018;50.278;19.134;2024-01-15T03:50:16;8.00;8.00;6.00
69746;PMS7003;57018;50.278;19.134;2024-01-15T03:52:46;11.00;11.00;6.00
69746;PMS7003;57018;50.278;19.134;2024-01-15T03:55:16;16.50;12.00;8.00
69746;PMS7003;57018;50.278;19.134;2024-01-15T03:57:45;9.50;9.50;5.50
69746;PMS7003;57018;50.278;19.134;2024-01-15T04:00:16;13.00;12.00;6.00
69746;PMS7003;57018;50.278;19.134;2024-01-15T04:02:46;12.00;8.00;5.00
69746;PMS7003;57018;50.278;19.134;2024-01-15T04:05:22;8.50;8.00;5.00
69746;PMS7003;57018;50.278;19.134;2024-01-15T04:07:52;12.00;11.00;6.00
69746;PMS7003;57018;50.278;19.134;2024-01-15T04:10:21;16.00;12.00;6.00
69746;PMS7003;57018;50.278;19.134;2024-01-15T04:12:52;10.00;8.50;3.00
69746;PMS7003;57018;50.278;19.134;2024-01-15T04:15:21;8.00;5.00;4.00
69746;PMS7003;57018;50.278;19.134;2024-01-15T04:17:51;6.00;6.00;4.00
69746;PMS7003;57018;50.278;19.134;2024-01-15T04:20:21;4.00;0.00;0.00
69746;PMS7003;57018;50.278;19.134;2024-01-15T04:22:51;12.00;10.00;8.00
69746;PMS7003;57018;50.278;19.134;2024-01-15T04:25:21;6.00;6.00;2.00
69746;PMS7003;57018;50.278;19.134;2024-01-15T04:27:51;12.00;11.00;8.00
69746;PMS7003;57018;50.278;19.134;2024-01-15T04:30:21;6.67;6.67;5.67
69746;PMS7003;57018;50.278;19.134;2024-01-15T04:32:51;9.00;9.00;6.00
69746;PMS7003;57018;50.278;19.134;2024-01-15T04:35:21;12.00;12.00;6.00
69746;PMS7003;57018;50.278;19.134;2024-01-15T04:37:51;8.00;8.00;5.00
69746;PMS7003;57018;50.278;19.134;2024-01-15T04:40:21;15.00;11.00;6.00
69746;PMS7003;57018;50.278;19.134;2024-01-15T04:42:54;9.00;5.00;1.00
69746;PMS7003;57018;50.278;19.134;2024-01-15T04:45:24;9.00;9.00;5.00
69746;PMS7003;57018;50.278;19.134;2024-01-15T04:47:55;12.50;9.50;5.50
69746;PMS7003;57018;50.278;19.134;2024-01-15T04:50:28;14.00;10.00;8.00
69746;PMS7003;57018;50.278;19.134;2024-01-15T04:52:57;14.00;12.50;9.50
69746;PMS7003;57018;50.278;19.134;2024-01-15T04:55:29;12.00;12.00;8.00
69746;PMS7003;57018;50.278;19.134;2024-01-15T04:57:59;12.00;10.00;8.00
69746;PMS7003;57018;50.278;19.134;2024-01-15T05:00:29;12.50;9.00;8.00
69746;PMS7003;57018;50.278;19.134;2024-01-15T05:03:02;13.00;11.00;5.00
69746;PMS7003;57018;50.278;19.134;2024-01-15T05:05:32;12.00;12.00;8.50
69746;PMS7003;57018;50.278;19.134;2024-01-15T05:08:06;9.00;8.00;6.00
69746;PMS7003;57018;50.278;19.134;2024-01-15T05:10:38;11.50;9.50;7.00
69746;PMS7003;57018;50.278;19.134;2024-01-15T05:13:08;15.00;12.00;8.00
69746;PMS7003;57018;50.278;19.134;2024-01-15T05:15:38;11.00;9.00;5.00
69746;PMS7003;57018;50.278;19.134;2024-01-15T05:18:08;19.00;19.00;11.00
69746;PMS7003;57018;50.278;19.134;2024-01-15T05:20:40;14.50;13.50;10.00
69746;PMS7003;57018;50.278;19.134;2024-01-15T05:23:10;11.00;8.00;6.00
69746;PMS7003;57018;50.278;19.134;2024-01-15T05:25:40;14.00;11.00;5.00
69746;PMS7003;57018;50.278;19.134;2024-01-15T05:28:10;13.00;13.00;9.00
69746;PMS7003;57018;50.278;19.134;2024-01-15T05:30:39;16.25;8.50;5.25
69746;PMS7003;57018;50.278;19.134;2024-01-15T05:33:09;11.00;8.00;6.00
69746;PMS7003;57018;50.278;19.134;2024-01-15T05:35:39;11.00;10.50;7.00
69746;PMS7003;57018;50.278;19.134;2024-01-15T05:38:12;14.00;8.00;5.00
69746;PMS7003;57018;50.278;19.134;2024-01-15T05:40:44;15.00;12.50;8.00
69746;PMS7003;57018;50.278;19.134;2024-01-15T05:43:14;14.50;13.50;8.00
69746;PMS7003;57018;50.278;19.134;2024-01-15T05:45:44;11.50;11.50;8.00
69746;PMS7003;57018;50.278;19.134;2024-01-15T05:48:14;16.00;16.00;9.00
69746;PMS7003;57018;50.278;19.134;2024-01-15T05:50:44;17.00;13.00;9.00
69746;PMS7003;57018;50.278;19.134;2024-01-15T05:53:13;13.50;12.00;7.50
69746;PMS7003;57018;50.278;19.134;2024-01-15T05:55:43;18.67;16.00;9.00
69746;PMS7003;57018;50.278;19.134;2024-01-15T05:58:15;18.00;14.00;9.00
69746;PMS7003;57018;50.278;19.134;2024-01-15T06:00:45;12.00;12.00;7.00
69746;PMS7003;57018;50.278;19.134;2024-01-15T06:03:17;18.50;15.00;11.00
69746;PMS7003;57018;50.278;19.134;2024-01-15T06:05:46;18.00;14.00;9.00
69746;PMS7003;57018;50.278;19.134;2024-01-15T06:08:17;16.00;16.00;11.00
69746;PMS7003;57018;50.278;19.134;2024-01-15T06:10:47;20.00;20.00;12.00
69746;PMS7003;57018;50.278;19.134;2024-01-15T06:13:17;18.00;16.00;11.00
69746;PMS7003;57018;50.278;19.134;2024-01-15T06:15:47;15.50;13.50;9.50
69746;PMS7003;57018;50.278;19.134;2024-01-15T06:18:19;14.00;14.00;10.00
69746;PMS7003;57018;50.278;19.134;2024-01-15T06:20:49;13.00;12.00;9.00
69746;PMS7003;57018;50.278;19.134;2024-01-15T06:23:19;25.00;16.00;9.00
69746;PMS7003;57018;50.278;19.134;2024-01-15T06:25:49;16.00;14.50;10.00
69746;PMS7003;57018;50.278;19.134;2024-01-15T06:28:19;25.00;20.00;13.00
69746;PMS7003;57018;50.278;19.134;2024-01-15T06:30:49;19.50;12.50;9.00
69746;PMS7003;57018;50.278;19.134;2024-01-15T06:33:21;16.00;15.00;10.00
69746;PMS7003;57018;50.278;19.134;2024-01-15T06:35:51;17.00;13.00;9.00
69746;PMS7003;57018;50.278;19.134;2024-01-15T06:38:21;17.00;16.00;11.00
69746;PMS7003;57018;50.278;19.134;2024-01-15T06:40:52;17.00;16.00;9.00
69746;PMS7003;57018;50.278;19.134;2024-01-15T06:43:21;17.00;16.00;12.00
69746;PMS7003;57018;50.278;19.134;2024-01-15T06:45:53;17.00;13.00;9.00
69746;PMS7003;57018;50.278;19.134;2024-01-15T06:48:22;26.00;15.00;9.00
69746;PMS7003;57018;50.278;19.134;2024-01-15T06:50:55;20.00;15.00;11.00
69746;PMS7003;57018;50.278;19.134;2024-01-15T06:53:29;15.50;15.50;11.00
69746;PMS7003;57018;50.278;19.134;2024-01-15T06:55:59;19.00;17.00;12.00
69746;PMS7003;57018;50.278;19.134;2024-01-15T06:58:30;17.00;17.00;14.00
69746;PMS7003;57018;50.278;19.134;2024-01-15T07:01:00;25.50;20.50;13.50
69746;PMS7003;57018;50.278;19.134;2024-01-15T07:03:31;21.67;14.67;9.67
69746;PMS7003;57018;50.278;19.134;2024-01-15T07:06:01;24.00;18.00;11.00
69746;PMS7003;57018;50.278;19.134;2024-01-15T07:08:32;19.00;15.00;11.00
69746;PMS7003;57018;50.278;19.134;2024-01-15T07:11:04;18.00;17.50;12.50
69746;PMS7003;57018;50.278;19.134;2024-01-15T07:13:35;12.00;11.00;8.00
69746;PMS7003;57018;50.278;19.134;2024-01-15T07:16:05;16.00;16.00;9.00
69746;PMS7003;57018;50.278;19.134;2024-01-15T07:18:37;19.00;17.50;11.50
69746;PMS7003;57018;50.278;19.134;2024-01-15T07:21:07;19.50;19.00;13.00
69746;PMS7003;57018;50.278;19.134;2024-01-15T07:23:38;19.00;16.00;10.00
69746;PMS7003;57018;50.278;19.134;2024-01-15T07:26:09;17.00;16.00;9.00
69746;PMS7003;57018;50.278;19.134;2024-01-15T07:28:39;15.50;12.50;9.00
69746;PMS7003;57018;50.278;19.134;2024-01-15T07:31:09;17.00;16.00;9.00
69746;PMS7003;57018;50.278;19.134;2024-01-15T07:33:39;17.00;16.00;10.00
69746;PMS7003;57018;50.278;19.134;2024-01-15T07:36:09;20.00;16.00;12.00
69746;PMS7003;57018;50.278;19.134;2024-01-15T07:38:39;12.50;12.50;8.00
69746;PMS7003;57018;50.278;19.134;2024-01-15T07:41:09;18.00;18.00;12.00
69746;PMS7003;57018;50.278;19.134;2024-01-15T07:43:41;26.50;23.00;12.50
69746;PMS7003;57018;50.278;19.134;2024-01-15T07:46:11;22.50;16.50;12.00
69746;PMS7003;57018;50.278;19.134;2024-01-15T07:48:40;23.00;23.00;13.00
69746;PMS7003;57018;50.278;19.134;2024-01-15T07:51:10;24.00;24.00;13.00
69746;PMS7003;57018;50.278;19.134;2024-01-15T07:53:40;26.00;24.00;14.00
69746;PMS7003;57018;50.278;19.134;2024-01-15T07:56:10;14.50;14.00;12.00
69746;PMS7003;57018;50.278;19.134;2024-01-15T07:58:42;18.00;16.50;11.00
69746;PMS7003;57018;50.278;19.134;2024-01-15T08:01:12;23.00;19.00;15.00
69746;PMS7003;57018;50.278;19.134;2024-01-15T08:03:43;21.00;15.00;11.00
69746;PMS7003;57018;50.278;19.134;2024-01-15T08:06:12;20.00;20.00;14.00
69746;PMS7003;57018;50.278;19.134;2024-01-15T08:08:43;21.00;16.00;12.00
69746;PMS7003;57018;50.278;19.134;2024-01-15T08:11:13;23.50;21.50;13.00
69746;PMS7003;57018;50.278;19.134;2024-01-15T08:13:45;26.50;21.50;14.50
69746;PMS7003;57018;50.278;19.134;2024-01-15T08:16:20;27.00;23.50;14.50
69746;PMS7003;57018;50.278;19.134;2024-01-15T08:18:51;20.00;19.00;13.00
69746;PMS7003;57018;50.278;19.134;2024-01-15T08:21:21;21.00;17.00;12.00
69746;PMS7003;57018;50.278;19.134;2024-01-15T08:23:51;28.50;24.00;16.00
69746;PMS7003;57018;50.278;19.134;2024-01-15T08:26:20;30.00;25.50;17.50
69746;PMS7003;57018;50.278;19.134;2024-01-15T08:28:53;28.00;24.00;17.00
69746;PMS7003;57018;50.278;19.134;2024-01-15T08:31:23;37.50;32.00;21.00
69746;PMS7003;57018;50.278;19.134;2024-01-15T08:33:54;30.00;25.50;15.00
69746;PMS7003;57018;50.278;19.134;2024-01-15T08:36:24;29.00;22.00;17.00
69746;PMS7003;57018;50.278;19.134;2024-01-15T08:38:56;33.00;26.00;17.00
69746;PMS7003;57018;50.278;19.134;2024-01-15T08:41:26;34.00;32.00;18.00
69746;PMS7003;57018;50.278;19.134;2024-01-15T08:43:56;29.00;24.50;16.00
69746;PMS7003;57018;50.278;19.134;2024-01-15T08:46:28;31.00;27.00;15.00
69746;PMS7003;57018;50.278;19.134;2024-01-15T08:48:57;32.00;25.50;17.00
69746;PMS7003;57018;50.278;19.134;2024-01-15T08:51:31;27.00;24.50;17.50
69746;PMS7003;57018;50.278;19.134;2024-01-15T08:54:00;34.33;24.33;17.00
69746;PMS7003;57018;50.278;19.134;2024-01-15T08:56:31;21.00;21.00;14.00
69746;PMS7003;57018;50.278;19.134;2024-01-15T08:59:01;32.00;26.00;14.50
69746;PMS7003;57018;50.278;19.134;2024-01-15T09:01:36;38.00;35.00;21.50
69746;PMS7003;57018;50.278;19.134;2024-01-15T09:04:06;37.00;30.00;20.00
69746;PMS7003;57018;50.278;19.134;2024-01-15T09:06:36;27.00;25.50;18.00
69746;PMS7003;57018;50.278;19.134;2024-01-15T09:09:05;30.50;27.50;18.00
69746;PMS7003;57018;50.278;19.134;2024-01-15T09:11:35;29.00;26.00;17.00
69746;PMS7003;57018;50.278;19.134;2024-01-15T09:14:05;34.50;27.50;18.50
69746;PMS7003;57018;50.278;19.134;2024-01-15T09:16:36;29.50;27.00;14.50
69746;PMS7003;57018;50.278;19.134;2024-01-15T09:19:06;35.00;32.00;20.00
69746;PMS7003;57018;50.278;19.134;2024-01-15T09:21:35;38.00;29.50;21.50
69746;PMS7003;57018;50.278;19.134;2024-01-15T09:24:08;29.00;26.00;18.00
69746;PMS7003;57018;50.278;19.134;2024-01-15T09:26:39;27.00;25.50;15.00
69746;PMS7003;57018;50.278;19.134;2024-01-15T09:29:09;24.00;20.67;14.00
69746;PMS7003;57018;50.278;19.134;2024-01-15T09:31:40;15.00;15.00;10.00
69746;PMS7003;57018;50.278;19.134;2024-01-15T09:34:15;30.00;26.33;18.00
69746;PMS7003;57018;50.278;19.134;2024-01-15T09:36:45;31.00;25.50;16.50
69746;PMS7003;57018;50.278;19.134;2024-01-15T09:39:15;32.00;29.00;19.50
69746;PMS7003;57018;50.278;19.134;2024-01-15T09:41:45;28.00;23.00;13.00
69746;PMS7003;57018;50.278;19.134;2024-01-15T09:44:18;29.00;28.00;19.00
69746;PMS7003;57018;50.278;19.134;2024-01-15T09:46:49;32.50;27.50;17.00
69746;PMS7003;57018;50.278;19.134;2024-01-15T09:49:19;25.00;22.00;16.00
69746;PMS7003;57018;50.278;19.134;2024-01-15T09:51:50;34.00;29.00;18.00
69746;PMS7003;57018;50.278;19.134;2024-01-15T09:54:22;36.00;28.00;16.00
69746;PMS7003;57018;50.278;19.134;2024-01-15T09:56:53;29.00;27.00;18.00
69746;PMS7003;57018;50.278;19.134;2024-01-15T09:59:24;33.50;27.50;18.50
69746;PMS7003;57018;50.278;19.134;2024-01-15T10:01:54;30.00;24.00;10.00
69746;PMS7003;57018;50.278;19.134;2024-01-15T10:04:26;29.50;26.50;16.00
69746;PMS7003;57018;50.278;19.134;2024-01-15T10:06:56;29.50;27.50;18.50
69746;PMS7003;57018;50.278;19.134;2024-01-15T10:09:31;30.00;29.00;18.00
69746;PMS7003;57018;50.278;19.134;2024-01-15T10:12:01;42.00;34.00;21.00
69746;PMS7003;57018;50.278;19.134;2024-01-15T10:14:31;30.00;29.00;18.00
69746;PMS7003;57018;50.278;19.134;2024-01-15T10:17:03;29.33;28.00;18.67
69746;PMS7003;57018;50.278;19.134;2024-01-15T10:19:42;30.00;28.00;16.00
69746;PMS7003;57018;50.278;19.134;2024-01-15T10:22:14;24.00;19.50;13.50
69746;PMS7003;57018;50.278;19.134;2024-01-15T10:24:45;30.50;27.50;17.50
69746;PMS7003;57018;50.278;19.134;2024-01-15T10:27:15;29.00;24.50;17.00
69746;PMS7003;57018;50.278;19.134;2024-01-15T10:29:45;30.00;28.00;18.00
69746;PMS7003;57018;50.278;19.134;2024-01-15T10:32:15;30.00;23.50;17.00
69746;PMS7003;57018;50.278;19.134;2024-01-15T10:34:45;35.00;29.00;19.00
69746;PMS7003;57018;50.278;19.134;2024-01-15T10:37:15;30.00;28.00;18.00
69746;PMS7003;57018;50.278;19.134;2024-01-15T10:39:45;36.00;29.00;16.00
69746;PMS7003;57018;50.278;19.134;2024-01-15T10:42:18;41.00;32.00;21.00
69746;PMS7003;57018;50.278;19.134;2024-01-15T10:44:48;33.67;27.67;19.00
69746;PMS7003;57018;50.278;19.134;2024-01-15T10:47:18;32.00;30.00;20.00
69746;PMS7003;57018;50.278;19.134;2024-01-15T10:49:49;32.00;28.00;17.00
69746;PMS7003;57018;50.278;19.134;2024-01-15T10:52:19;41.50;34.00;20.50
69746;PMS7003;57018;50.278;19.134;2024-01-15T10:54:49;30.67;28.00;16.33
69746;PMS7003;57018;50.278;19.134;2024-01-15T10:57:21;25.50;23.50;18.00
69746;PMS7003;57018;50.278;19.134;2024-01-15T10:59:53;35.67;31.33;21.00
69746;PMS7003;57018;50.278;19.134;2024-01-15T11:02:23;30.00;28.00;19.00
69746;PMS7003;57018;50.278;19.134;2024-01-15T11:04:54;30.00;26.00;16.50
69746;PMS7003;57018;50.278;19.134;2024-01-15T11:07:25;27.00;23.50;14.50
69746;PMS7003;57018;50.278;19.134;2024-01-15T11:10:02;25.50;25.50;14.00
69746;PMS7003;57018;50.278;19.134;2024-01-15T11:12:39;23.00;22.00;12.00
69746;PMS7003;57018;50.278;19.134;2024-01-15T11:15:16;29.50;28.00;19.00
69746;PMS7003;57018;50.278;19.134;2024-01-15T11:17:58;30.00;29.00;17.00
69746;PMS7003;57018;50.278;19.134;2024-01-15T11:20:35;32.00;31.00;18.00
69746;PMS7003;57018;50.278;19.134;2024-01-15T11:23:04;32.00;27.00;17.00
69746;PMS7003;57018;50.278;19.134;2024-01-15T11:28:06;28.50;25.50;17.00
69746;PMS7003;57018;50.278;19.134;2024-01-15T11:30:38;24.00;22.00;13.50
69746;PMS7003;57018;50.278;19.134;2024-01-15T11:33:08;28.50;26.00;16.00
69746;PMS7003;57018;50.278;19.134;2024-01-15T11:36:04;32.00;31.00;20.00
69746;PMS7003;57018;50.278;19.134;2024-01-15T11:38:35;34.00;30.00;18.00
69746;PMS7003;57018;50.278;19.134;2024-01-15T11:41:06;40.00;36.00;21.00
69746;PMS7003;57018;50.278;19.134;2024-01-15T11:43:43;40.50;34.50;22.00
69746;PMS7003;57018;50.278;19.134;2024-01-15T11:46:13;47.00;37.00;21.00
69746;PMS7003;57018;50.278;19.134;2024-01-15T11:48:47;34.50;34.50;20.50
69746;PMS7003;57018;50.278;19.134;2024-01-15T11:51:30;45.00;39.00;27.00
69746;PMS7003;57018;50.278;19.134;2024-01-15T11:54:01;31.33;28.33;19.33
69746;PMS7003;57018;50.278;19.134;2024-01-15T11:56:36;31.50;28.50;20.00
69746;PMS7003;57018;50.278;19.134;2024-01-15T11:59:06;34.00;29.00;18.00
69746;PMS7003;57018;50.278;19.134;2024-01-15T12:01:40;30.00;23.00;16.00
69746;PMS7003;57018;50.278;19.134;2024-01-15T12:04:10;40.50;33.00;22.00
69746;PMS7003;57018;50.278;19.134;2024-01-15T12:06:39;38.00;35.00;21.00
69746;PMS7003;57018;50.278;19.134;2024-01-15T12:09:09;44.00;38.00;23.00
69746;PMS7003;57018;50.278;19.134;2024-01-15T12:11:39;44.00;38.00;26.00
69746;PMS7003;57018;50.278;19.134;2024-01-15T12:14:18;38.00;30.00;21.00
69746;PMS7003;57018;50.278;19.134;2024-01-15T12:16:48;42.50;36.00;22.50
69746;PMS7003;57018;50.278;19.134;2024-01-15T12:19:18;42.00;35.50;24.50
69746;PMS7003;57018;50.278;19.134;2024-01-15T12:21:51;37.00;28.00;18.00
69746;PMS7003;57018;50.278;19.134;2024-01-15T12:24:22;42.00;38.00;26.00
69746;PMS7003;57018;50.278;19.134;2024-01-15T12:26:54;24.00;22.50;18.50
69746;PMS7003;57018;50.278;19.134;2024-01-15T12:29:25;37.00;33.00;22.33
69746;PMS7003;57018;50.278;19.134;2024-01-15T12:31:57;35.00;28.00;17.00
69746;PMS7003;57018;50.278;19.134;2024-01-15T12:34:30;36.50;35.00;22.00
69746;PMS7003;57018;50.278;19.134;2024-01-15T12:37:00;32.33;29.33;18.33
69746;PMS7003;57018;50.278;19.134;2024-01-15T12:39:30;20.50;18.00;11.00
69746;PMS7003;57018;50.278;19.134;2024-01-15T12:42:02;30.00;26.00;18.00
69746;PMS7003;57018;50.278;19.134;2024-01-15T12:44:32;34.00;26.00;14.00
69746;PMS7003;57018;50.278;19.134;2024-01-15T12:47:17;27.50;25.00;14.50
69746;PMS7003;57018;50.278;19.134;2024-01-15T12:49:48;23.00;21.00;14.00
69746;PMS7003;57018;50.278;19.134;2024-01-15T12:52:20;26.00;25.00;17.00
69746;PMS7003;57018;50.278;19.134;2024-01-15T12:54:51;31.00;25.00;15.00
69746;PMS7003;57018;50.278;19.134;2024-01-15T12:57:21;24.00;23.00;15.00
69746;PMS7003;57018;50.278;19.134;2024-01-15T12:59:54;35.00;29.00;18.00
69746;PMS7003;57018;50.278;19.134;2024-01-15T13:02:24;20.00;20.00;12.00
69746;PMS7003;57018;50.278;19.134;2024-01-15T13:04:54;34.00;27.00;19.50
69746;PMS7003;57018;50.278;19.134;2024-01-15T13:09:55;27.00;26.00;17.00
69746;PMS7003;57018;50.278;19.134;2024-01-15T13:12:24;22.00;21.00;14.00
69746;PMS7003;57018;50.278;19.134;2024-01-15T13:14:54;27.50;25.50;17.00
69746;PMS7003;57018;50.278;19.134;2024-01-15T13:17:26;34.50;31.00;17.00
69746;PMS7003;57018;50.278;19.134;2024-01-15T13:19:58;40.00;32.00;17.00
69746;PMS7003;57018;50.278;19.134;2024-01-15T13:22:29;29.00;25.00;14.00
69746;PMS7003;57018;50.278;19.134;2024-01-15T13:24:59;46.00;39.00;25.00
69746;PMS7003;57018;50.278;19.134;2024-01-15T13:27:34;27.00;27.00;16.00
69746;PMS7003;57018;50.278;19.134;2024-01-15T13:30:06;27.00;25.00;17.00
69746;PMS7003;57018;50.278;19.134;2024-01-15T13:32:42;36.00;25.00;16.00
69746;PMS7003;57018;50.278;19.134;2024-01-15T13:35:12;28.00;28.00;18.00
69746;PMS7003;57018;50.278;19.134;2024-01-15T13:37:43;29.50;27.00;20.50
69746;PMS7003;57018;50.278;19.134;2024-01-15T13:40:17;25.00;22.50;16.00
69746;PMS7003;57018;50.278;19.134;2024-01-15T13:42:49;28.00;26.00;17.00
69746;PMS7003;57018;50.278;19.134;2024-01-15T13:45:19;34.50;29.50;21.50
69746;PMS7003;57018;50.278;19.134;2024-01-15T13:47:50;26.00;25.00;17.00
69746;PMS7003;57018;50.278;19.134;2024-01-15T13:50:20;33.00;24.00;19.00
69746;PMS7003;57018;50.278;19.134;2024-01-15T13:52:51;30.00;26.50;17.50
69746;PMS7003;57018;50.278;19.134;2024-01-15T13:55:21;34.00;29.00;18.00
69746;PMS7003;57018;50.278;19.134;2024-01-15T13:57:51;35.00;28.50;18.00
69746;PMS7003;57018;50.278;19.134;2024-01-15T14:00:23;29.00;29.00;15.00
69746;PMS7003;57018;50.278;19.134;2024-01-15T14:02:53;43.00;36.00;23.50
69746;PMS7003;57018;50.278;19.134;2024-01-15T14:05:24;33.50;27.50;19.00
69746;PMS7003;57018;50.278;19.134;2024-01-15T14:07:54;26.00;22.00;12.00
69746;PMS7003;57018;50.278;19.134;2024-01-15T14:10:25;26.67;22.67;16.67
69746;PMS7003;57018;50.278;19.134;2024-01-15T14:12:55;29.50;26.00;20.50
69746;PMS7003;57018;50.278;19.134;2024-01-15T14:15:25;32.50;31.00;17.00